Time;durP1;ratioP1;P1;durP2;ratioP2;P2;SDS_P1;SDS_P2;PMS_P1;PMS_P2;Temp;Humidity;BMP_temperature;BMP_pressure;BME280_temperature;BME280_humidity;BME280_pressure;Samples;Min_cycle;Max_cycle;Signal;HPM_P1;HPM_P2
2022/12/01 00:02:08;;;;;;;25.77;17.00;;;5.60;99.90;;;;;;5012703;28;20190;-72
2022/12/01 00:04:34;;;;;;;24.70;17.13;;;5.70;99.90;;;;;;5012785;28;20171;-73
2022/12/01 00:06:59;;;;;;;22.00;16.63;;;5.60;99.90;;;;;;5011217;28;20172;-71
2022/12/01 00:12:09;;;;;;;34.07;21.43;;;5.50;99.90;;;;;;5012157;28;20171;-71
2022/12/01 00:14:35;;;;;;;27.27;20.03;;;5.70;99.90;;;;;;5011826;28;20403;-72
2022/12/01 00:17:00;;;;;;;24.63;17.50;;;5.60;99.90;;;;;;5011726;28;20187;-72
2022/12/01 00:19:27;;;;;;;26.60;19.00;;;5.80;99.90;;;;;;5011086;28;20578;-72
2022/12/01 00:21:52;;;;;;;28.87;20.07;;;5.70;99.90;;;;;;5012420;28;20168;-72
2022/12/01 00:24:18;;;;;;;31.67;21.37;;;5.70;99.90;;;;;;5012242;28;20910;-72
2022/12/01 00:26:44;;;;;;;26.27;21.03;;;5.70;99.90;;;;;;5012549;28;20184;-72
2022/12/01 00:29:10;;;;;;;29.13;19.03;;;5.40;99.90;;;;;;5011933;28;20423;-72
2022/12/01 00:31:36;;;;;;;27.30;19.70;;;5.50;99.90;;;;;;5009199;28;20172;-72
2022/12/01 00:34:01;;;;;;;28.80;20.03;;;5.50;99.90;;;;;;5003483;28;20176;-73
2022/12/01 00:36:27;;;;;;;28.57;18.67;;;5.60;99.90;;;;;;5011944;28;20834;-72
2022/12/01 00:38:54;;;;;;;26.00;18.23;;;5.70;99.90;;;;;;5011741;28;20212;-72
2022/12/01 00:41:21;;;;;;;26.10;18.33;;;5.90;99.90;;;;;;5012054;28;20161;-72
2022/12/01 00:43:47;;;;;;;28.13;19.63;;;5.70;99.90;;;;;;5011849;28;20537;-72
2022/12/01 00:46:13;;;;;;;25.70;19.13;;;5.80;99.90;;;;;;5012027;28;20446;-73
2022/12/01 00:48:39;;;;;;;28.20;18.33;;;5.70;99.90;;;;;;5012291;28;20483;-73
2022/12/01 00:51:04;;;;;;;21.17;16.60;;;5.60;99.90;;;;;;5012730;28;20160;-73
2022/12/01 00:53:30;;;;;;;24.40;16.80;;;5.50;99.90;;;;;;5012228;28;20172;-72
2022/12/01 00:55:56;;;;;;;25.50;17.90;;;5.60;99.90;;;;;;5015006;28;20172;-72
2022/12/01 00:58:22;;;;;;;23.73;17.80;;;5.80;99.90;;;;;;5013332;28;20447;-73
2022/12/01 01:00:48;;;;;;;25.97;16.93;;;5.90;99.90;;;;;;5015698;28;20594;-73
2022/12/01 01:03:14;;;;;;;22.93;16.77;;;6.10;99.90;;;;;;5014682;28;20450;-72
2022/12/01 01:05:41;;;;;;;24.90;17.37;;;6.20;99.90;;;;;;5015703;28;20490;-73
2022/12/01 01:08:09;;;;;;;25.70;17.97;;;6.30;99.90;;;;;;5015683;28;20280;-71
2022/12/01 01:10:39;;;;;;;22.27;15.83;;;6.40;99.90;;;;;;5015363;28;20403;-71
2022/12/01 01:13:04;;;;;;;22.60;16.80;;;6.10;99.90;;;;;;5014272;28;20420;-72
2022/12/01 01:15:30;;;;;;;22.90;15.87;;;6.10;99.90;;;;;;5015669;28;20414;-72
2022/12/01 01:17:55;;;;;;;22.93;16.60;;;6.00;99.90;;;;;;5016040;28;20659;-71
2022/12/01 01:20:21;;;;;;;25.63;18.40;;;6.20;99.90;;;;;;5013942;28;20258;-71
2022/12/01 01:22:47;;;;;;;22.23;15.87;;;6.00;99.90;;;;;;5013598;28;20387;-71
2022/12/01 01:25:12;;;;;;;25.87;17.17;;;5.90;99.90;;;;;;5015042;28;20165;-72
2022/12/01 01:27:38;;;;;;;26.07;18.93;;;5.90;99.90;;;;;;5013386;28;20173;-72
2022/12/01 01:30:04;;;;;;;20.30;15.50;;;6.00;99.90;;;;;;5014709;28;20647;-72
2022/12/01 01:32:30;;;;;;;25.00;18.03;;;6.10;99.90;;;;;;5014659;28;20671;-71
2022/12/01 01:34:55;;;;;;;20.70;16.60;;;6.10;99.90;;;;;;5014547;28;20403;-72
2022/12/01 01:37:21;;;;;;;23.87;16.57;;;6.10;99.90;;;;;;5014393;28;20286;-72
2022/12/01 01:39:46;;;;;;;24.87;18.40;;;6.10;99.90;;;;;;5013563;28;20246;-72
2022/12/01 01:42:13;;;;;;;23.67;15.47;;;5.90;99.90;;;;;;5014553;28;20172;-72
2022/12/01 01:44:51;;;;;;;27.43;19.23;;;6.10;99.90;;;;;;5014406;28;20638;-72
2022/12/01 01:47:31;;;;;;;24.73;17.43;;;6.10;99.90;;;;;;5014634;28;20782;-72
2022/12/01 01:50:04;;;;;;;27.73;17.60;;;6.10;99.90;;;;;;5014577;28;20428;-72
2022/12/01 01:52:29;;;;;;;21.03;16.83;;;6.30;99.90;;;;;;5014699;28;20400;-72
2022/12/01 01:54:55;;;;;;;25.00;17.30;;;6.30;99.90;;;;;;5013058;28;20556;-72
2022/12/01 01:57:30;;;;;;;24.20;16.60;;;6.00;99.90;;;;;;5013439;28;20177;-71
2022/12/01 02:00:07;;;;;;;23.70;17.80;;;5.80;99.90;;;;;;5014412;28;20510;-72
2022/12/01 02:02:39;;;;;;;24.30;17.70;;;5.50;99.90;;;;;;5014371;28;20975;-72
2022/12/01 02:05:09;;;;;;;25.77;18.63;;;5.40;99.90;;;;;;5012472;28;20435;-72
2022/12/01 02:07:37;;;;;;;27.20;18.23;;;5.40;99.90;;;;;;5012100;28;20410;-72
2022/12/01 02:10:04;;;;;;;24.00;17.07;;;5.30;99.90;;;;;;5013000;28;20878;-72
2022/12/01 02:13:00;;;;;;;24.40;17.27;;;5.30;99.90;;;;;;5014159;28;20740;-72
2022/12/01 02:15:58;;;;;;;26.80;19.70;;;5.40;99.90;;;;;;5013265;28;20904;-72
2022/12/01 02:18:33;;;;;;;27.53;19.03;;;5.40;99.90;;;;;;5014133;28;20440;-72
2022/12/01 02:21:17;;;;;;;26.70;19.30;;;5.30;99.90;;;;;;4994803;28;20399;-72
2022/12/01 02:24:19;;;;;;;25.57;18.03;;;5.30;99.90;;;;;;4994248;28;20479;-72
2022/12/01 02:27:05;;;;;;;24.20;18.43;;;5.40;99.90;;;;;;4994584;28;20380;-72
2022/12/01 02:29:57;;;;;;;25.07;17.30;;;5.40;99.90;;;;;;4994254;28;20424;-72
2022/12/01 02:32:48;;;;;;;27.53;19.70;;;5.30;99.90;;;;;;4991904;28;20417;-72
2022/12/01 02:35:23;;;;;;;27.67;18.57;;;5.30;99.90;;;;;;4994227;28;20405;-72
2022/12/01 02:38:27;;;;;;;23.10;16.90;;;5.60;99.90;;;;;;4994089;28;20392;-72
2022/12/01 02:41:15;;;;;;;28.60;17.87;;;5.90;99.90;;;;;;4994196;28;20779;-72
2022/12/01 02:43:48;;;;;;;27.70;18.80;;;5.70;99.90;;;;;;4994412;28;20459;-72
2022/12/01 02:46:26;;;;;;;25.70;17.63;;;5.70;99.90;;;;;;4993502;28;20405;-72
2022/12/01 02:48:56;;;;;;;28.87;18.43;;;5.90;99.90;;;;;;4997272;28;20462;-72
2022/12/01 02:51:27;;;;;;;26.13;18.10;;;5.80;99.90;;;;;;5013460;28;20404;-72
2022/12/01 02:53:55;;;;;;;27.17;17.70;;;5.90;99.90;;;;;;5011899;28;20411;-72
2022/12/01 02:56:22;;;;;;;27.27;18.83;;;5.40;99.90;;;;;;5013344;28;20591;-72
2022/12/01 02:58:48;;;;;;;27.03;18.00;;;5.30;99.90;;;;;;5013206;28;20427;-72
2022/12/01 03:01:41;;;;;;;26.37;17.50;;;5.30;99.90;;;;;;5012891;28;20829;-72
2022/12/01 03:04:23;;;;;;;26.17;17.57;;;5.20;99.90;;;;;;5013138;28;20461;-72
2022/12/01 03:07:14;;;;;;;32.53;19.20;;;5.10;99.90;;;;;;5012007;28;20463;-72
2022/12/01 03:09:58;;;;;;;26.73;18.13;;;5.20;99.90;;;;;;5012231;28;20443;-72
2022/12/01 03:12:46;;;;;;;26.80;18.67;;;5.30;99.90;;;;;;5011465;28;20407;-72
2022/12/01 03:15:29;;;;;;;25.97;18.53;;;5.10;99.90;;;;;;5012615;28;20645;-71
2022/12/01 03:18:10;;;;;;;23.10;16.77;;;5.00;99.90;;;;;;5012911;28;20482;-72
2022/12/01 03:21:02;;;;;;;27.90;16.80;;;5.00;99.90;;;;;;5011673;28;20907;-72
2022/12/01 03:23:34;;;;;;;32.90;19.77;;;4.80;99.90;;;;;;4993179;28;20482;-71
2022/12/01 03:26:02;;;;;;;24.77;18.47;;;5.00;99.90;;;;;;4999725;28;20416;-72
2022/12/01 03:28:35;;;;;;;30.87;20.03;;;5.00;99.90;;;;;;5013195;28;20424;-71
2022/12/01 03:31:06;;;;;;;25.57;17.40;;;4.90;99.90;;;;;;5013459;28;20391;-71
2022/12/01 03:33:36;;;;;;;27.80;19.13;;;5.00;99.90;;;;;;5013061;28;20383;-72
2022/12/01 03:36:28;;;;;;;27.50;18.27;;;4.80;99.90;;;;;;5013104;28;20399;-73
2022/12/01 03:39:00;;;;;;;27.17;18.83;;;4.70;99.90;;;;;;5012009;28;20455;-71
2022/12/01 03:41:34;;;;;;;23.63;17.20;;;4.90;99.90;;;;;;5012911;28;20376;-72
2022/12/01 03:44:13;;;;;;;60.60;36.10;;;5.00;99.90;;;;;;5012727;28;20458;-72
2022/12/01 03:47:03;;;;;;;30.30;19.87;;;5.20;99.90;;;;;;5011744;28;20930;-71
2022/12/01 03:49:29;;;;;;;23.53;16.20;;;5.10;99.90;;;;;;5011443;28;20573;-72
2022/12/01 03:52:07;;;;;;;26.07;17.40;;;4.90;99.90;;;;;;5012419;28;20731;-71
2022/12/01 03:54:45;;;;;;;22.33;15.77;;;5.10;99.90;;;;;;5012150;28;20821;-71
2022/12/01 03:57:16;;;;;;;24.53;18.17;;;5.40;99.90;;;;;;5012809;28;20876;-71
2022/12/01 03:59:44;;;;;;;25.67;17.83;;;5.20;99.90;;;;;;5010989;28;20482;-72
2022/12/01 04:02:10;;;;;;;27.00;18.30;;;5.20;99.90;;;;;;5012532;28;20415;-72
2022/12/01 04:04:36;;;;;;;24.93;17.33;;;5.30;99.90;;;;;;5010124;28;20419;-72
2022/12/01 04:07:02;;;;;;;24.83;16.63;;;5.20;99.90;;;;;;5012311;28;20401;-72
2022/12/01 04:09:28;;;;;;;22.77;17.33;;;5.40;99.90;;;;;;5010974;28;20535;-71
2022/12/01 04:14:37;;;;;;;23.80;16.40;;;5.50;99.90;;;;;;5012211;28;20163;-71
2022/12/01 04:17:03;;;;;;;28.43;19.00;;;5.70;99.90;;;;;;5012151;28;20418;-71
2022/12/01 04:19:28;;;;;;;26.10;18.90;;;5.70;99.90;;;;;;5012074;28;20197;-71
2022/12/01 04:21:54;;;;;;;22.63;16.87;;;5.80;99.90;;;;;;5011850;28;20176;-72
2022/12/01 04:24:19;;;;;;;22.07;16.40;;;5.70;99.90;;;;;;5012758;28;20206;-73
2022/12/01 04:26:46;;;;;;;25.80;18.20;;;5.90;99.90;;;;;;5011150;28;20234;-73
2022/12/01 04:29:12;;;;;;;25.10;16.33;;;5.90;99.90;;;;;;5012620;28;20303;-72
2022/12/01 04:31:37;;;;;;;27.03;20.23;;;5.90;99.90;;;;;;5016455;28;20408;-72
2022/12/01 04:34:03;;;;;;;21.93;16.10;;;5.90;99.90;;;;;;5015995;28;20909;-72
2022/12/01 04:36:31;;;;;;;22.30;17.20;;;6.00;99.90;;;;;;5015781;28;20416;-72
2022/12/01 04:38:57;;;;;;;27.37;18.17;;;5.80;99.90;;;;;;5015875;28;20516;-72
2022/12/01 04:41:22;;;;;;;25.90;17.60;;;5.80;99.90;;;;;;5015595;28;20890;-73
2022/12/01 04:43:48;;;;;;;22.63;17.67;;;6.00;99.90;;;;;;5015367;28;20193;-71
2022/12/01 04:46:14;;;;;;;25.00;17.80;;;5.90;99.90;;;;;;5015549;28;20279;-71
2022/12/01 04:48:40;;;;;;;22.60;16.67;;;5.90;99.90;;;;;;5015726;28;20242;-72
2022/12/01 04:51:07;;;;;;;24.20;16.97;;;5.80;99.90;;;;;;5014599;28;20442;-72
2022/12/01 04:53:33;;;;;;;26.03;18.90;;;5.90;99.90;;;;;;5015917;28;20180;-72
2022/12/01 04:56:00;;;;;;;22.93;16.50;;;5.80;99.90;;;;;;5015569;28;20526;-72
2022/12/01 04:58:27;;;;;;;24.10;16.90;;;5.70;99.90;;;;;;5014927;28;20449;-71
2022/12/01 05:00:53;;;;;;;22.83;17.10;;;5.70;99.90;;;;;;5015300;28;20942;-72
2022/12/01 05:03:18;;;;;;;24.03;16.87;;;5.80;99.90;;;;;;5015061;28;20490;-72
2022/12/01 05:05:44;;;;;;;25.63;17.80;;;5.80;99.90;;;;;;5015023;28;20176;-72
2022/12/01 05:08:10;;;;;;;26.73;19.70;;;5.80;99.90;;;;;;5015163;28;20311;-71
2022/12/01 05:10:36;;;;;;;26.40;20.20;;;5.60;99.90;;;;;;5013601;28;20177;-71
2022/12/01 05:13:03;;;;;;;26.40;18.10;;;5.50;99.90;;;;;;5012410;28;20272;-71
2022/12/01 05:15:30;;;;;;;24.07;17.73;;;5.30;99.90;;;;;;5015682;28;20446;-72
2022/12/01 05:17:56;;;;;;;29.87;20.00;;;5.40;99.90;;;;;;5014924;28;20411;-72
2022/12/01 05:23:08;;;;;;;25.80;18.30;;;5.40;99.90;;;;;;5015011;28;20717;-72
2022/12/01 05:25:36;;;;;;;26.77;19.80;;;5.40;99.90;;;;;;5014713;28;20443;-72
2022/12/01 05:28:02;;;;;;;29.33;20.10;;;5.30;99.90;;;;;;5014414;28;20473;-71
2022/12/01 05:30:27;;;;;;;23.63;17.70;;;5.40;99.90;;;;;;5015359;28;20407;-71
2022/12/01 05:32:53;;;;;;;26.57;18.83;;;5.70;99.90;;;;;;5015377;28;20944;-72
2022/12/01 05:35:18;;;;;;;26.83;18.87;;;5.90;99.90;;;;;;5014817;28;20179;-72
2022/12/01 05:37:44;;;;;;;26.10;19.20;;;6.00;99.90;;;;;;5015016;28;20195;-72
2022/12/01 05:40:10;;;;;;;29.17;20.50;;;6.00;99.90;;;;;;5014149;28;20304;-72
2022/12/01 05:42:36;;;;;;;28.83;20.80;;;5.90;99.90;;;;;;5013575;28;20240;-72
2022/12/01 05:45:01;;;;;;;28.03;21.67;;;5.80;99.90;;;;;;5015040;28;20824;-71
2022/12/01 05:47:27;;;;;;;28.83;19.90;;;5.70;99.90;;;;;;5014737;28;20168;-72
2022/12/01 05:49:52;;;;;;;28.10;19.93;;;5.20;99.90;;;;;;5013027;28;20547;-73
2022/12/01 05:52:18;;;;;;;29.07;19.90;;;5.30;99.90;;;;;;5014621;28;20191;-73
2022/12/01 05:54:43;;;;;;;26.37;18.43;;;5.00;99.90;;;;;;5014625;28;20175;-73
2022/12/01 05:57:09;;;;;;;28.23;21.33;;;4.90;99.90;;;;;;5013849;28;20172;-73
2022/12/01 05:59:34;;;;;;;27.93;19.50;;;5.00;99.90;;;;;;5014132;28;20220;-73
2022/12/01 06:02:00;;;;;;;28.80;20.80;;;5.10;99.90;;;;;;5012768;28;20172;-72
2022/12/01 06:04:26;;;;;;;28.07;20.00;;;5.20;99.90;;;;;;5014565;28;20597;-72
2022/12/01 06:06:51;;;;;;;30.77;20.23;;;5.20;99.90;;;;;;5013036;28;20224;-72
2022/12/01 06:09:17;;;;;;;30.53;20.60;;;5.30;99.90;;;;;;5015017;28;20196;-73
2022/12/01 06:11:42;;;;;;;28.40;21.03;;;5.40;99.90;;;;;;5014371;28;20509;-72
2022/12/01 06:14:08;;;;;;;27.23;20.07;;;5.60;99.90;;;;;;5012425;28;20173;-72
2022/12/01 06:16:34;;;;;;;31.17;23.20;;;5.60;99.90;;;;;;5014737;28;20172;-72
2022/12/01 06:18:59;;;;;;;26.53;19.07;;;5.60;99.90;;;;;;5007082;28;20261;-72
2022/12/01 06:21:25;;;;;;;32.73;21.67;;;5.80;99.90;;;;;;4994483;28;20424;-73
2022/12/01 06:23:51;;;;;;;31.80;21.27;;;5.80;99.90;;;;;;4994628;28;20200;-73
2022/12/01 06:26:16;;;;;;;28.30;20.20;;;5.50;99.90;;;;;;4995045;28;20644;-73
2022/12/01 06:28:42;;;;;;;26.90;19.03;;;5.30;99.90;;;;;;5008256;28;20199;-73
2022/12/01 06:31:07;;;;;;;37.00;22.33;;;5.20;99.90;;;;;;5014339;28;20296;-72
2022/12/01 06:33:33;;;;;;;52.83;22.90;;;5.30;99.90;;;;;;5014545;28;20663;-73
2022/12/01 06:36:01;;;;;;;30.93;22.13;;;5.30;99.90;;;;;;5013171;28;20264;-73
2022/12/01 06:38:30;;;;;;;29.67;21.30;;;5.10;99.90;;;;;;5014072;28;20292;-74
2022/12/01 06:40:59;;;;;;;31.70;21.33;;;5.00;99.90;;;;;;5014164;28;20416;-73
2022/12/01 06:43:24;;;;;;;33.33;23.70;;;5.10;99.90;;;;;;5013867;28;20550;-73
2022/12/01 06:45:50;;;;;;;28.10;20.33;;;5.00;99.90;;;;;;5012757;28;20505;-72
2022/12/01 06:48:15;;;;;;;29.80;21.37;;;5.10;99.90;;;;;;5014124;28;20215;-72
2022/12/01 06:50:41;;;;;;;27.40;20.30;;;5.00;99.90;;;;;;5013759;28;20649;-72
2022/12/01 06:53:07;;;;;;;31.13;21.07;;;4.80;99.90;;;;;;5012439;28;20545;-73
2022/12/01 06:55:32;;;;;;;31.40;22.37;;;4.70;99.90;;;;;;5013807;28;20164;-73
2022/12/01 06:57:59;;;;;;;33.13;22.60;;;4.80;99.90;;;;;;5013453;28;20711;-73
2022/12/01 07:00:24;;;;;;;33.13;22.30;;;4.80;99.90;;;;;;5012723;28;20172;-73
2022/12/01 07:02:50;;;;;;;27.77;22.37;;;5.10;99.90;;;;;;5012581;28;20777;-73
2022/12/01 07:05:16;;;;;;;31.10;22.80;;;5.30;99.90;;;;;;5013468;28;20183;-73
2022/12/01 07:07:42;;;;;;;28.33;20.03;;;5.50;99.90;;;;;;5013510;28;20168;-72
2022/12/01 07:10:09;;;;;;;33.07;20.57;;;5.40;99.90;;;;;;5013959;28;20548;-71
2022/12/01 07:12:35;;;;;;;33.33;23.23;;;4.90;99.90;;;;;;5013756;28;20575;-73
2022/12/01 07:15:01;;;;;;;30.40;21.13;;;4.90;99.90;;;;;;5013117;28;20465;-72
2022/12/01 07:17:27;;;;;;;33.80;22.60;;;4.80;99.90;;;;;;5012870;28;20195;-72
2022/12/01 07:19:53;;;;;;;29.57;21.23;;;4.70;99.90;;;;;;5013016;28;20184;-73
2022/12/01 07:22:18;;;;;;;28.17;20.20;;;4.80;99.90;;;;;;5013243;28;20501;-74
2022/12/01 07:24:44;;;;;;;30.10;20.53;;;4.80;99.90;;;;;;5013351;28;20164;-73
2022/12/01 07:27:10;;;;;;;34.07;22.20;;;5.00;99.90;;;;;;5013147;28;20574;-72
2022/12/01 07:29:35;;;;;;;26.47;19.60;;;5.20;99.90;;;;;;5012527;28;20200;-72
2022/12/01 07:32:07;;;;;;;34.97;22.67;;;5.30;99.90;;;;;;5012436;28;20194;-72
2022/12/01 07:34:32;;;;;;;29.60;21.60;;;5.40;99.90;;;;;;5011337;28;20172;-72
2022/12/01 07:36:58;;;;;;;28.43;21.10;;;5.20;99.90;;;;;;5011804;28;20729;-72
2022/12/01 07:39:23;;;;;;;32.00;22.17;;;5.40;99.90;;;;;;5012610;28;20295;-72
2022/12/01 07:41:49;;;;;;;27.70;21.03;;;5.10;99.90;;;;;;5011820;28;20179;-73
2022/12/01 07:44:15;;;;;;;31.93;23.93;;;5.00;99.90;;;;;;5012103;28;20615;-72
2022/12/01 07:46:40;;;;;;;31.97;22.13;;;5.00;99.90;;;;;;5012909;28;20403;-72
2022/12/01 07:49:08;;;;;;;34.07;21.90;;;5.30;99.90;;;;;;5011477;28;20199;-72
2022/12/01 07:51:33;;;;;;;32.00;22.70;;;5.50;99.90;;;;;;5013320;28;20176;-72
2022/12/01 07:54:05;;;;;;;34.37;22.03;;;5.30;99.90;;;;;;5012626;28;20410;-72
2022/12/01 07:56:31;;;;;;;34.17;22.27;;;5.20;99.90;;;;;;5012444;28;20172;-72
2022/12/01 07:58:56;;;;;;;35.07;22.10;;;5.10;99.90;;;;;;5012095;28;20954;-72
2022/12/01 08:01:24;;;;;;;25.50;18.20;;;5.30;99.90;;;;;;5011185;28;20452;-73
2022/12/01 08:03:51;;;;;;;25.90;18.77;;;5.30;99.90;;;;;;5012720;28;20199;-73
2022/12/01 08:06:18;;;;;;;32.87;22.17;;;5.30;99.90;;;;;;5016317;28;20403;-72
2022/12/01 08:08:44;;;;;;;27.13;20.47;;;5.40;99.90;;;;;;5016326;28;20421;-72
2022/12/01 08:11:18;;;;;;;29.70;19.63;;;5.10;99.90;;;;;;5016584;28;20410;-72
2022/12/01 08:13:44;;;;;;;28.07;20.13;;;5.10;99.90;;;;;;5016513;28;20423;-72
2022/12/01 08:16:12;;;;;;;30.63;22.60;;;5.30;99.90;;;;;;5016256;28;20774;-72
2022/12/01 08:18:39;;;;;;;31.10;21.60;;;5.40;99.90;;;;;;5016758;28;20452;-72
2022/12/01 08:21:06;;;;;;;30.63;21.60;;;5.50;99.90;;;;;;5015968;28;20469;-73
2022/12/01 08:23:33;;;;;;;33.30;22.03;;;5.60;99.90;;;;;;5015065;28;20462;-72
2022/12/01 08:26:03;;;;;;;28.10;21.10;;;5.60;99.90;;;;;;5017192;28;20396;-72
2022/12/01 08:28:29;;;;;;;26.10;19.53;;;5.40;99.90;;;;;;5015424;28;20477;-72
2022/12/01 08:30:55;;;;;;;25.77;18.77;;;5.30;99.90;;;;;;5017236;28;20459;-73
2022/12/01 08:33:21;;;;;;;27.60;20.70;;;5.40;99.90;;;;;;5016021;28;20971;-72
2022/12/01 08:35:46;;;;;;;32.03;22.20;;;5.50;99.90;;;;;;5016010;28;20494;-73
2022/12/01 08:38:12;;;;;;;25.27;18.77;;;5.50;99.90;;;;;;5014691;28;20570;-73
2022/12/01 08:40:37;;;;;;;25.07;19.60;;;5.60;99.90;;;;;;5015337;28;20169;-73
2022/12/01 08:43:04;;;;;;;26.40;19.97;;;5.80;99.90;;;;;;5014631;28;20227;-72
2022/12/01 08:45:30;;;;;;;26.37;19.40;;;5.60;99.90;;;;;;5014660;28;20223;-73
2022/12/01 08:47:57;;;;;;;26.97;20.37;;;5.40;99.90;;;;;;5016026;28;20415;-73
2022/12/01 08:50:25;;;;;;;27.33;18.70;;;5.40;99.90;;;;;;5013981;28;20914;-72
2022/12/01 08:52:51;;;;;;;27.80;20.57;;;5.30;99.90;;;;;;5013906;28;20403;-72
2022/12/01 08:55:17;;;;;;;31.10;20.03;;;5.40;99.90;;;;;;5013767;28;20435;-71
2022/12/01 08:57:42;;;;;;;29.00;20.27;;;5.60;99.90;;;;;;5012724;28;20447;-72
2022/12/01 09:00:09;;;;;;;30.73;21.23;;;5.60;99.90;;;;;;5013603;28;20216;-72
2022/12/01 09:02:34;;;;;;;28.10;19.10;;;5.50;99.90;;;;;;5013531;28;20679;-73
2022/12/01 09:05:00;;;;;;;28.70;20.67;;;5.70;99.90;;;;;;5013000;28;20396;-72
2022/12/01 09:07:25;;;;;;;30.83;22.73;;;5.70;99.90;;;;;;5015321;28;20165;-72
2022/12/01 09:09:51;;;;;;;30.63;20.70;;;5.80;99.90;;;;;;5014199;28;20215;-75
2022/12/01 09:12:16;;;;;;;28.27;18.53;;;5.50;99.90;;;;;;5004402;28;20202;-73
2022/12/01 09:14:48;;;;;;;26.40;18.97;;;5.30;99.90;;;;;;5015396;28;20165;-72
2022/12/01 09:17:15;;;;;;;27.83;20.43;;;5.40;99.90;;;;;;5015554;28;20148;-73
2022/12/01 09:19:42;;;;;;;26.00;19.87;;;5.60;99.90;;;;;;5014904;28;20420;-73
2022/12/01 09:22:09;;;;;;;26.57;21.00;;;5.50;99.90;;;;;;5015373;28;20912;-73
2022/12/01 09:24:34;;;;;;;27.67;19.40;;;5.30;99.90;;;;;;5015103;28;20450;-72
2022/12/01 09:27:02;;;;;;;26.33;19.30;;;5.10;99.90;;;;;;5015473;28;20407;-72
2022/12/01 09:29:28;;;;;;;26.43;18.80;;;5.10;99.90;;;;;;5015516;28;20180;-73
2022/12/01 09:31:56;;;;;;;26.30;18.97;;;5.30;99.90;;;;;;5015475;28;20949;-73
2022/12/01 09:34:22;;;;;;;25.40;17.03;;;5.60;99.90;;;;;;5014394;28;20498;-72
2022/12/01 09:36:48;;;;;;;25.90;19.10;;;5.40;99.90;;;;;;5014668;28;20406;-73
2022/12/01 09:39:16;;;;;;;27.57;20.50;;;5.50;99.90;;;;;;5015576;28;20585;-72
2022/12/01 09:41:49;;;;;;;26.53;19.57;;;5.50;99.90;;;;;;5014042;28;20450;-73
2022/12/01 09:44:35;;;;;;;27.73;18.80;;;5.20;99.90;;;;;;5013141;28;21048;-72
2022/12/01 09:47:04;;;;;;;26.70;19.80;;;5.20;99.90;;;;;;5015022;28;20401;-72
2022/12/01 09:49:48;;;;;;;24.37;18.10;;;5.10;99.90;;;;;;5014767;28;20450;-73
2022/12/01 09:52:17;;;;;;;29.13;17.87;;;5.20;99.90;;;;;;5014963;28;20410;-73
2022/12/01 09:54:43;;;;;;;24.97;18.10;;;5.40;99.90;;;;;;5014925;28;20399;-72
2022/12/01 09:57:22;;;;;;;26.63;18.80;;;5.20;99.90;;;;;;5015122;28;20923;-72
2022/12/01 09:59:51;;;;;;;25.80;21.57;;;5.00;99.90;;;;;;5013819;28;20449;-72
2022/12/01 10:02:36;;;;;;;27.27;19.93;;;5.20;99.90;;;;;;5014667;28;20712;-72
2022/12/01 10:05:06;;;;;;;33.23;23.20;;;5.20;99.90;;;;;;5015113;28;20498;-74
2022/12/01 10:07:44;;;;;;;25.47;18.10;;;5.30;99.90;;;;;;5014776;28;20498;-74
2022/12/01 10:10:25;;;;;;;26.80;20.50;;;5.20;99.90;;;;;;5014966;28;20487;-74
2022/12/01 10:12:51;;;;;;;27.77;20.03;;;5.40;99.90;;;;;;5012953;28;20423;-73
2022/12/01 10:15:46;;;;;;;26.90;19.30;;;5.60;99.90;;;;;;5014619;28;20419;-72
2022/12/01 10:18:24;;;;;;;28.30;18.37;;;5.30;99.90;;;;;;5014740;28;20467;-70
2022/12/01 10:21:20;;;;;;;28.73;19.80;;;5.20;99.90;;;;;;5014276;28;20898;-70
2022/12/01 10:24:18;;;;;;;28.63;20.33;;;5.20;99.90;;;;;;5014289;28;20436;-71
2022/12/01 10:27:05;;;;;;;29.67;20.87;;;5.50;99.90;;;;;;5004374;28;20938;-71
2022/12/01 10:29:48;;;;;;;26.47;19.60;;;5.40;99.90;;;;;;5014002;28;20445;-71
2022/12/01 10:32:46;;;;;;;26.83;19.20;;;5.40;99.90;;;;;;5014240;28;20439;-70
2022/12/01 10:35:16;;;;;;;28.70;18.10;;;5.40;99.90;;;;;;4970797;28;20423;-71
2022/12/01 10:37:44;;;;;;;28.10;19.63;;;5.40;99.90;;;;;;5014394;28;20782;-71
2022/12/01 10:40:16;;;;;;;30.23;20.20;;;5.30;99.90;;;;;;5014190;28;20861;-71
2022/12/01 10:42:44;;;;;;;28.23;19.10;;;5.40;99.90;;;;;;5013429;28;20455;-70
2022/12/01 10:45:23;;;;;;;27.20;19.93;;;5.10;99.90;;;;;;5012589;28;20427;-70
2022/12/01 10:48:20;;;;;;;25.90;18.03;;;5.40;99.90;;;;;;5013947;28;20406;-70
2022/12/01 10:50:49;;;;;;;27.37;19.63;;;5.50;99.90;;;;;;5013181;28;20774;-70
2022/12/01 10:53:28;;;;;;;23.70;17.33;;;5.50;99.90;;;;;;5013757;28;20422;-71
2022/12/01 10:55:59;;;;;;;27.77;20.50;;;5.60;99.90;;;;;;5013283;28;20415;-71
2022/12/01 10:58:25;;;;;;;22.73;17.57;;;5.70;99.90;;;;;;5013391;28;20433;-70
2022/12/01 11:00:59;;;;;;;26.63;19.43;;;5.80;99.90;;;;;;5011909;28;20421;-71
2022/12/01 11:03:29;;;;;;;27.70;19.70;;;5.80;99.90;;;;;;5012534;28;20451;-72
2022/12/01 11:05:59;;;;;;;25.63;19.33;;;5.60;99.90;;;;;;5013287;28;20422;-70
2022/12/01 11:08:40;;;;;;;23.57;18.07;;;5.30;99.90;;;;;;5013237;28;20770;-70
2022/12/01 11:11:21;;;;;;;26.00;18.87;;;5.20;99.90;;;;;;5013171;28;20835;-70
2022/12/01 11:13:46;;;;;;;24.20;18.57;;;5.30;99.90;;;;;;5012673;28;20402;-72
2022/12/01 11:16:37;;;;;;;25.80;19.30;;;5.50;99.90;;;;;;5011614;28;20423;-71
2022/12/01 11:19:17;;;;;;;29.33;19.60;;;5.50;99.90;;;;;;5012980;28;20235;-72
2022/12/01 11:21:51;;;;;;;28.57;19.97;;;5.50;99.90;;;;;;5012539;28;20876;-72
2022/12/01 11:24:43;;;;;;;25.00;18.43;;;5.80;99.90;;;;;;5012754;28;20454;-71
2022/12/01 11:27:34;;;;;;;26.07;18.40;;;5.80;99.90;;;;;;5012789;28;20391;-71
2022/12/01 11:30:04;;;;;;;27.50;18.87;;;5.60;99.90;;;;;;5013030;28;20431;-71
2022/12/01 11:32:33;;;;;;;25.90;19.60;;;5.90;99.90;;;;;;5012650;28;20432;-71
2022/12/01 11:35:23;;;;;;;26.50;19.50;;;5.70;99.90;;;;;;5012592;28;20399;-71
2022/12/01 11:37:52;;;;;;;25.97;19.13;;;5.60;99.90;;;;;;5012110;28;20427;-71
2022/12/01 11:40:31;;;;;;;28.70;20.30;;;5.60;99.90;;;;;;5012855;28;20418;-71
2022/12/01 11:43:00;;;;;;;23.37;18.40;;;5.80;99.90;;;;;;5013430;28;20455;-71
2022/12/01 11:45:38;;;;;;;28.00;20.37;;;5.90;99.90;;;;;;5012032;28;20783;-71
2022/12/01 11:48:21;;;;;;;24.83;18.23;;;5.80;99.90;;;;;;5013519;28;20397;-71
2022/12/01 11:51:16;;;;;;;26.53;19.73;;;5.80;99.90;;;;;;5013879;28;20419;-71
2022/12/01 11:53:43;;;;;;;26.33;19.10;;;5.70;99.90;;;;;;5012447;28;20862;-71
2022/12/01 11:56:11;;;;;;;28.10;19.70;;;5.70;99.90;;;;;;5013547;28;20853;-71
2022/12/01 11:58:37;;;;;;;26.77;17.70;;;6.00;99.90;;;;;;5012945;28;20507;-70
2022/12/01 12:01:25;;;;;;;23.80;17.40;;;6.00;99.90;;;;;;5013033;28;20994;-70
2022/12/01 12:04:08;;;;;;;24.27;18.00;;;6.30;99.90;;;;;;4983547;28;20735;-70
2022/12/01 12:07:03;;;;;;;21.90;17.00;;;6.20;99.90;;;;;;5016104;28;20422;-71
2022/12/01 12:10:13;;;;;;;23.87;18.83;;;6.00;99.90;;;;;;5019065;28;20442;-71
2022/12/01 12:12:58;;;;;;;25.77;18.20;;;5.90;99.90;;;;;;5017404;28;20931;-71
2022/12/01 12:15:34;;;;;;;28.67;20.23;;;6.10;99.90;;;;;;5018188;28;20392;-71
2022/12/01 12:17:59;;;;;;;28.10;19.00;;;6.20;99.90;;;;;;5018207;28;20393;-71
2022/12/01 12:20:31;;;;;;;24.50;18.60;;;6.00;99.90;;;;;;5017746;28;20411;-71
2022/12/01 12:23:28;;;;;;;23.73;17.00;;;5.90;99.90;;;;;;5018517;28;20193;-71
2022/12/01 12:26:12;;;;;;;26.70;18.90;;;6.10;99.90;;;;;;5023258;28;20388;-72
2022/12/01 12:28:43;;;;;;;25.77;19.23;;;6.20;99.90;;;;;;5022664;28;20427;-73
2022/12/01 12:31:28;;;;;;;23.83;17.80;;;6.30;99.90;;;;;;5012377;28;20411;-73
2022/12/01 12:33:59;;;;;;;26.60;18.07;;;6.10;99.90;;;;;;5011936;28;20439;-73
2022/12/01 12:37:02;;;;;;;25.17;18.77;;;5.60;99.90;;;;;;5012915;28;20415;-73
2022/12/01 12:39:35;;;;;;;24.47;18.27;;;5.60;99.90;;;;;;4981966;28;21030;-73
2022/12/01 12:42:04;;;;;;;24.73;17.63;;;5.70;99.90;;;;;;5012525;28;20818;-73
2022/12/01 12:44:50;;;;;;;24.67;17.90;;;5.90;99.90;;;;;;5010896;28;20457;-74
2022/12/01 12:47:31;;;;;;;24.83;17.63;;;6.10;99.90;;;;;;5011642;28;20423;-72
2022/12/01 12:50:14;;;;;;;27.30;17.57;;;6.30;99.90;;;;;;5011560;28;20438;-73
2022/12/01 12:52:44;;;;;;;22.97;17.43;;;6.50;99.90;;;;;;5017693;28;20479;-74
2022/12/01 12:55:35;;;;;;;25.13;19.03;;;6.60;99.90;;;;;;5016133;28;20411;-73
2022/12/01 12:58:17;;;;;;;23.47;17.77;;;6.50;99.90;;;;;;5015953;28;20411;-74
2022/12/01 13:00:50;;;;;;;25.00;17.80;;;6.50;99.90;;;;;;5015122;28;20418;-73
2022/12/01 13:03:25;;;;;;;21.43;16.73;;;6.50;99.90;;;;;;5015757;28;20510;-73
2022/12/01 13:06:00;;;;;;;22.43;16.07;;;6.40;99.90;;;;;;5015658;28;20504;-73